Time;durP1;ratioP1;P1;durP2;ratioP2;P2;SDS_P1;SDS_P2;PMS_P1;PMS_P2;Temp;Humidity;BMP_temperature;BMP_pressure;BME280_temperature;BME280_humidity;BME280_pressure;Samples;Min_cycle;Max_cycle;Signal;HPM_P1;HPM_P2
2022/04/15 00:02:06;;;;;;;1.00;0.50;;;14.70;1.00;;;;;;5118176;28;20760;-60
2022/04/15 00:04:34;;;;;;;2.37;0.43;;;14.80;1.00;;;;;;5118355;28;20543;-59
2022/04/15 00:07:01;;;;;;;0.80;0.50;;;14.80;1.00;;;;;;5118075;28;20499;-59
2022/04/15 00:09:30;;;;;;;1.97;0.50;;;14.80;1.00;;;;;;5118555;28;20532;-59
2022/04/15 00:12:00;;;;;;;1.23;0.50;;;14.70;99.90;;;;;;5116184;28;20449;-60
2022/04/15 00:14:28;;;;;;;0.70;0.40;;;14.70;99.90;;;;;;5116179;28;20547;-60
2022/04/15 00:16:55;;;;;;;1.03;0.50;;;14.60;99.90;;;;;;5114547;28;20512;-60
2022/04/15 00:19:23;;;;;;;0.63;0.40;;;14.60;99.90;;;;;;5116628;28;20448;-60
2022/04/15 00:21:50;;;;;;;0.60;0.43;;;14.60;99.90;;;;;;5116789;28;20484;-59
2022/04/15 00:24:17;;;;;;;0.63;0.40;;;14.60;99.90;;;;;;5116123;28;20661;-60
2022/04/15 00:26:43;;;;;;;1.60;0.50;;;14.60;99.90;;;;;;5114857;28;20491;-60
2022/04/15 00:29:10;;;;;;;1.23;0.40;;;14.60;99.90;;;;;;5114454;28;20467;-60
2022/04/15 00:31:39;;;;;;;0.80;0.50;;;14.70;99.90;;;;;;5115081;28;20459;-59
2022/04/15 00:34:06;;;;;;;0.80;0.53;;;14.70;99.90;;;;;;5115412;28;20952;-60
2022/04/15 00:36:32;;;;;;;1.30;0.50;;;14.70;1.00;;;;;;5114137;28;20487;-60
2022/04/15 00:38:59;;;;;;;0.63;0.50;;;14.70;1.00;;;;;;5113710;28;20563;-59
2022/04/15 00:41:26;;;;;;;0.57;0.43;;;14.80;1.00;;;;;;5115049;28;20487;-60
2022/04/15 00:43:54;;;;;;;0.70;0.47;;;14.80;1.00;;;;;;5117377;28;20449;-59
2022/04/15 00:46:21;;;;;;;0.80;0.50;;;14.80;1.00;;;;;;5116836;28;20473;-59
2022/04/15 00:48:50;;;;;;;0.90;0.60;;;14.70;1.00;;;;;;5116374;28;20535;-60
2022/04/15 00:51:17;;;;;;;1.43;0.50;;;14.70;99.90;;;;;;5117454;28;20480;-59
2022/04/15 00:53:46;;;;;;;0.87;0.60;;;14.60;99.90;;;;;;5116666;28;20544;-60
2022/04/15 00:56:14;;;;;;;0.67;0.50;;;14.50;99.90;;;;;;5116564;28;20487;-60
2022/04/15 00:58:42;;;;;;;0.80;0.50;;;14.40;99.90;;;;;;5116540;28;20452;-59
2022/04/15 01:01:09;;;;;;;0.93;0.50;;;14.30;99.90;;;;;;5115814;28;20487;-59
2022/04/15 01:03:37;;;;;;;0.80;0.50;;;14.30;99.90;;;;;;5115195;28;20472;-61
2022/04/15 01:06:07;;;;;;;0.87;0.50;;;14.30;1.00;;;;;;5115064;28;20451;-59
2022/04/15 01:08:38;;;;;;;0.80;0.50;;;14.30;1.00;;;;;;5113625;28;20445;-60
2022/04/15 01:11:07;;;;;;;3.50;0.57;;;14.30;1.00;;;;;;5114504;28;20887;-59
2022/04/15 01:13:35;;;;;;;0.60;0.40;;;14.30;1.00;;;;;;5116302;28;20495;-60
2022/04/15 01:16:03;;;;;;;1.10;0.53;;;14.30;1.00;;;;;;5116639;28;20452;-59
2022/04/15 01:18:29;;;;;;;0.93;0.60;;;14.30;1.00;;;;;;5116947;28;20457;-60
2022/04/15 01:20:56;;;;;;;2.53;0.50;;;14.30;1.00;;;;;;5116297;28;20533;-60
2022/04/15 01:23:25;;;;;;;1.27;0.50;;;14.40;1.00;;;;;;5116568;28;20873;-60
2022/04/15 01:25:52;;;;;;;2.53;0.60;;;14.40;1.00;;;;;;5116300;28;20533;-60
2022/04/15 01:28:19;;;;;;;0.77;0.60;;;14.40;1.00;;;;;;5116489;28;20480;-59
2022/04/15 01:30:46;;;;;;;1.07;0.60;;;14.40;1.00;;;;;;5115973;28;20455;-60
2022/04/15 01:33:13;;;;;;;1.07;0.60;;;14.30;1.00;;;;;;5116900;28;20534;-60
2022/04/15 01:35:40;;;;;;;1.00;0.60;;;14.20;1.00;;;;;;5115964;28;20547;-59
2022/04/15 01:38:10;;;;;;;0.73;0.60;;;14.30;1.00;;;;;;5116603;28;20505;-59
2022/04/15 01:40:39;;;;;;;1.20;0.60;;;14.20;1.00;;;;;;5116673;28;20444;-60
2022/04/15 01:43:07;;;;;;;1.33;0.40;;;14.20;1.00;;;;;;5116152;28;20780;-59
2022/04/15 01:45:34;;;;;;;0.87;0.50;;;14.20;1.00;;;;;;5116541;28;20856;-60
2022/04/15 01:48:01;;;;;;;0.87;0.50;;;14.20;1.00;;;;;;5116886;28;20496;-60
2022/04/15 01:50:29;;;;;;;0.63;0.50;;;14.10;1.00;;;;;;5116486;28;20488;-59
2022/04/15 01:52:56;;;;;;;2.30;0.50;;;14.10;1.00;;;;;;5116416;28;20746;-59
2022/04/15 01:55:23;;;;;;;1.30;0.50;;;14.20;1.00;;;;;;5115174;28;20449;-60
2022/04/15 01:57:51;;;;;;;0.80;0.50;;;14.10;1.00;;;;;;5114873;28;20951;-61
2022/04/15 02:00:19;;;;;;;1.20;0.50;;;14.10;1.00;;;;;;5114670;28;20472;-59
2022/04/15 02:02:45;;;;;;;1.30;0.57;;;14.10;1.00;;;;;;5114399;28;20520;-59
2022/04/15 02:05:12;;;;;;;0.90;0.50;;;14.10;1.00;;;;;;5115544;28;20520;-59
2022/04/15 02:07:39;;;;;;;2.43;0.60;;;14.10;1.00;;;;;;5114842;28;20488;-59
2022/04/15 02:10:07;;;;;;;0.80;0.50;;;14.10;1.00;;;;;;5115672;28;20535;-59
2022/04/15 02:12:34;;;;;;;1.60;0.60;;;14.10;1.00;;;;;;5115697;28;20828;-59
2022/04/15 02:15:04;;;;;;;1.43;0.53;;;14.00;1.00;;;;;;5116000;28;20448;-59
2022/04/15 02:17:31;;;;;;;0.60;0.43;;;14.00;1.00;;;;;;5115686;28;20551;-59
2022/04/15 02:19:57;;;;;;;1.10;0.50;;;14.00;1.00;;;;;;5114257;28;20548;-59
2022/04/15 02:22:24;;;;;;;0.90;0.50;;;13.90;1.00;;;;;;5114998;28;20491;-59
2022/04/15 02:24:51;;;;;;;0.80;0.60;;;13.80;1.00;;;;;;5114859;28;20898;-59
2022/04/15 02:27:18;;;;;;;1.00;0.60;;;13.90;1.00;;;;;;5114374;28;20448;-60
2022/04/15 02:29:45;;;;;;;0.60;0.40;;;13.90;1.00;;;;;;5114417;28;20476;-59
2022/04/15 02:32:13;;;;;;;0.90;0.50;;;13.90;1.00;;;;;;5114742;28;20960;-59
2022/04/15 02:34:40;;;;;;;0.73;0.50;;;13.90;1.00;;;;;;5116095;28;20962;-59
2022/04/15 02:37:07;;;;;;;1.40;0.57;;;13.90;1.00;;;;;;5116177;28;20563;-59
2022/04/15 02:39:33;;;;;;;2.73;0.60;;;13.80;1.00;;;;;;5115824;28;20539;-59
2022/04/15 02:42:01;;;;;;;1.00;0.50;;;13.80;1.00;;;;;;5115111;28;20567;-59
2022/04/15 02:44:29;;;;;;;3.20;0.60;;;13.80;1.00;;;;;;5114785;28;20455;-60
2022/04/15 02:46:58;;;;;;;2.00;0.50;;;13.80;1.00;;;;;;5116250;28;20448;-60
2022/04/15 02:49:27;;;;;;;1.20;0.60;;;13.80;1.00;;;;;;5116517;28;20456;-59
2022/04/15 02:51:55;;;;;;;0.63;0.50;;;13.80;1.00;;;;;;5115854;28;20453;-59
2022/04/15 02:54:21;;;;;;;0.63;0.40;;;13.90;1.00;;;;;;5115518;28;20452;-59
2022/04/15 02:56:48;;;;;;;0.73;0.50;;;13.90;1.00;;;;;;5115721;28;20445;-59
2022/04/15 02:59:16;;;;;;;0.50;0.40;;;13.90;1.00;;;;;;5114578;28;20555;-59
2022/04/15 03:01:45;;;;;;;1.00;0.60;;;13.90;1.00;;;;;;5115504;28;20448;-60
2022/04/15 03:04:12;;;;;;;1.87;0.60;;;13.80;1.00;;;;;;5115927;28;20453;-59
2022/04/15 03:06:40;;;;;;;0.90;0.60;;;13.70;1.00;;;;;;5116021;28;20441;-60
2022/04/15 03:09:07;;;;;;;1.00;0.50;;;13.60;1.00;;;;;;5116132;28;20468;-59
2022/04/15 03:11:37;;;;;;;0.87;0.53;;;13.60;1.00;;;;;;5115165;28;20520;-59
2022/04/15 03:14:04;;;;;;;0.90;0.50;;;13.60;1.00;;;;;;5114741;28;20486;-60
2022/04/15 03:16:31;;;;;;;0.80;0.53;;;13.50;1.00;;;;;;5115995;28;20465;-59
2022/04/15 03:18:58;;;;;;;1.23;0.60;;;13.50;1.00;;;;;;5118672;28;20460;-59
2022/04/15 03:21:25;;;;;;;0.87;0.60;;;13.50;1.00;;;;;;5118879;28;20488;-60
2022/04/15 03:23:54;;;;;;;0.67;0.40;;;13.40;1.00;;;;;;5118475;28;20523;-59
2022/04/15 03:26:21;;;;;;;0.80;0.57;;;13.50;1.00;;;;;;5119512;28;20528;-59
2022/04/15 03:28:48;;;;;;;0.87;0.50;;;13.50;1.00;;;;;;5119121;28;20510;-59
2022/04/15 03:31:15;;;;;;;1.30;0.60;;;13.50;1.00;;;;;;5118954;28;20804;-59
2022/04/15 03:33:42;;;;;;;1.50;0.50;;;13.50;1.00;;;;;;5118540;28;20891;-60
2022/04/15 03:36:09;;;;;;;1.37;0.50;;;13.50;1.00;;;;;;5118889;28;20724;-61
2022/04/15 03:38:36;;;;;;;1.57;0.50;;;13.50;1.00;;;;;;5118724;28;20531;-60
2022/04/15 03:41:04;;;;;;;0.60;0.40;;;13.50;1.00;;;;;;5118910;28;20448;-59
2022/04/15 03:43:32;;;;;;;1.67;0.60;;;13.40;1.00;;;;;;5117625;28;21009;-59
2022/04/15 03:45:58;;;;;;;1.20;0.60;;;13.40;1.00;;;;;;5117970;28;20782;-59
2022/04/15 03:48:26;;;;;;;0.70;0.50;;;13.30;1.00;;;;;;5117599;28;20535;-59
2022/04/15 03:50:53;;;;;;;0.93;0.53;;;13.30;1.00;;;;;;5117732;28;20447;-58
2022/04/15 03:53:20;;;;;;;0.90;0.60;;;13.20;1.00;;;;;;5117317;28;20448;-58
2022/04/15 03:55:47;;;;;;;3.70;0.50;;;13.10;1.00;;;;;;5117914;28;20936;-58
2022/04/15 03:58:16;;;;;;;0.87;0.53;;;13.00;1.00;;;;;;5117991;28;20535;-59
2022/04/15 04:00:44;;;;;;;1.10;0.70;;;13.00;1.00;;;;;;5118380;28;20492;-58
2022/04/15 04:03:12;;;;;;;1.03;0.60;;;13.00;1.00;;;;;;5116327;28;20776;-58
2022/04/15 04:05:39;;;;;;;0.80;0.60;;;13.00;1.00;;;;;;5117446;28;20456;-58
2022/04/15 04:08:07;;;;;;;1.43;0.60;;;13.10;1.00;;;;;;5116305;28;20441;-60
2022/04/15 04:10:33;;;;;;;2.80;0.70;;;13.10;1.00;;;;;;5116978;28;20543;-58
2022/04/15 04:13:02;;;;;;;1.43;0.60;;;13.10;1.00;;;;;;5117808;28;20531;-58
2022/04/15 04:15:31;;;;;;;1.13;0.70;;;13.20;1.00;;;;;;5117921;28;20556;-58
2022/04/15 04:17:58;;;;;;;1.00;0.50;;;13.10;1.00;;;;;;5116797;28;20484;-60
2022/04/15 04:20:25;;;;;;;0.77;0.50;;;13.10;1.00;;;;;;5118329;28;20564;-60
2022/04/15 04:22:52;;;;;;;0.90;0.67;;;13.00;1.00;;;;;;5116956;28;20980;-60
2022/04/15 04:25:19;;;;;;;1.30;0.60;;;13.00;1.00;;;;;;5117356;28;20925;-60
2022/04/15 04:27:46;;;;;;;0.60;0.40;;;13.00;1.00;;;;;;5117398;28;20535;-60
2022/04/15 04:30:15;;;;;;;0.73;0.50;;;13.00;1.00;;;;;;5116704;28;20484;-60
2022/04/15 04:32:49;;;;;;;0.90;0.60;;;12.90;1.00;;;;;;5116269;28;20476;-60
2022/04/15 04:35:16;;;;;;;0.80;0.50;;;13.00;1.00;;;;;;5117320;28;20452;-60
2022/04/15 04:37:43;;;;;;;1.30;0.73;;;12.90;1.00;;;;;;5117771;28;20454;-58
2022/04/15 04:40:11;;;;;;;2.47;0.70;;;12.90;1.00;;;;;;5117798;28;20548;-58
2022/04/15 04:42:38;;;;;;;1.00;0.60;;;12.90;1.00;;;;;;5117294;28;20571;-60
2022/04/15 04:45:06;;;;;;;0.77;0.60;;;12.80;1.00;;;;;;5117332;28;20587;-60
2022/04/15 04:47:33;;;;;;;0.90;0.50;;;12.80;4.90;;;;;;5116264;28;20823;-58
2022/04/15 04:50:01;;;;;;;0.70;0.50;;;12.80;1.00;;;;;;5116396;28;20488;-58
2022/04/15 04:52:28;;;;;;;1.57;0.57;;;12.90;1.00;;;;;;5116558;28;20453;-58
2022/04/15 04:54:55;;;;;;;0.97;0.60;;;12.90;1.00;;;;;;5115328;28;20577;-58
2022/04/15 04:57:22;;;;;;;1.43;0.60;;;12.90;1.00;;;;;;5114830;28;20447;-58
2022/04/15 04:59:49;;;;;;;2.87;0.63;;;12.80;1.00;;;;;;5113805;28;20456;-58
2022/04/15 05:02:16;;;;;;;0.90;0.57;;;12.90;1.00;;;;;;5114666;28;20445;-59
2022/04/15 05:04:43;;;;;;;0.93;0.70;;;12.90;1.00;;;;;;5115691;28;20884;-59
2022/04/15 05:07:11;;;;;;;1.10;0.60;;;12.90;1.00;;;;;;5115939;28;20547;-58
2022/04/15 05:09:41;;;;;;;1.97;0.60;;;13.00;1.00;;;;;;5115614;28;20761;-58
2022/04/15 05:12:10;;;;;;;0.90;0.50;;;13.00;1.00;;;;;;5115226;28;20915;-58
2022/04/15 05:14:37;;;;;;;1.00;0.60;;;13.00;1.00;;;;;;5117373;28;20730;-58
2022/04/15 05:17:04;;;;;;;3.73;0.70;;;13.00;1.00;;;;;;5115876;28;20803;-59
2022/04/15 05:19:31;;;;;;;1.30;0.70;;;13.00;1.00;;;;;;5116266;28;20444;-59
2022/04/15 05:21:58;;;;;;;2.63;0.70;;;13.10;1.00;;;;;;5116514;28;20528;-58
2022/04/15 05:24:26;;;;;;;2.07;0.70;;;12.90;4.20;;;;;;5116764;28;20586;-59
2022/04/15 05:26:53;;;;;;;1.00;0.67;;;12.90;6.50;;;;;;5116821;28;20823;-58
2022/04/15 05:29:20;;;;;;;1.50;0.60;;;12.90;1.30;;;;;;5116938;28;20475;-59
2022/04/15 05:31:47;;;;;;;1.40;0.60;;;12.90;1.00;;;;;;5116793;28;20532;-58
2022/04/15 05:34:14;;;;;;;2.60;0.70;;;12.80;10.50;;;;;;5116785;28;20912;-59
2022/04/15 05:36:40;;;;;;;1.20;0.70;;;12.80;20.60;;;;;;5116269;28;20444;-59
2022/04/15 05:39:07;;;;;;;0.90;0.63;;;12.80;16.30;;;;;;5114585;28;20449;-59
2022/04/15 05:41:35;;;;;;;1.77;0.80;;;12.90;15.60;;;;;;5116087;28;20927;-59
2022/04/15 05:44:03;;;;;;;0.83;0.60;;;13.00;10.40;;;;;;5115298;28;21049;-60
2022/04/15 05:46:30;;;;;;;1.00;0.70;;;13.20;1.00;;;;;;5116325;28;20522;-60
2022/04/15 05:48:57;;;;;;;1.53;0.73;;;13.30;1.00;;;;;;5116383;28;20987;-60
2022/04/15 05:51:24;;;;;;;1.00;0.70;;;13.40;1.00;;;;;;5116290;28;20445;-60
2022/04/15 05:53:51;;;;;;;1.73;0.80;;;13.50;1.00;;;;;;5114311;28;20547;-60
2022/04/15 05:56:18;;;;;;;1.10;0.60;;;13.60;1.00;;;;;;5115414;28;20502;-60
2022/04/15 05:58:46;;;;;;;1.97;0.73;;;13.60;1.00;;;;;;5115644;28;20938;-60
2022/04/15 06:01:13;;;;;;;1.30;0.70;;;13.70;1.00;;;;;;5116003;28;20450;-59
2022/04/15 06:03:40;;;;;;;1.20;0.90;;;13.70;1.00;;;;;;5115791;28;20957;-60
2022/04/15 06:06:07;;;;;;;1.90;0.90;;;13.80;1.00;;;;;;5116065;28;20876;-60
2022/04/15 06:08:34;;;;;;;1.30;0.90;;;13.80;1.00;;;;;;5116359;28;20521;-60
2022/04/15 06:11:01;;;;;;;1.20;0.83;;;13.90;1.00;;;;;;5116614;28;20911;-60
2022/04/15 06:13:29;;;;;;;1.23;0.70;;;14.00;1.00;;;;;;5115854;28;20524;-60
2022/04/15 06:15:58;;;;;;;1.30;0.80;;;14.10;1.00;;;;;;5115497;28;20464;-60
2022/04/15 06:18:25;;;;;;;1.50;0.73;;;14.20;1.00;;;;;;5116102;28;20445;-60
2022/04/15 06:20:53;;;;;;;2.90;0.90;;;14.10;1.00;;;;;;5116593;28;20523;-60
2022/04/15 06:23:20;;;;;;;1.00;0.83;;;14.20;1.00;;;;;;5116331;28;20571;-59
2022/04/15 06:25:47;;;;;;;3.80;1.00;;;14.20;1.00;;;;;;5116356;28;20445;-60
2022/04/15 06:28:16;;;;;;;2.00;1.17;;;14.20;1.00;;;;;;5116218;28;20516;-60
2022/04/15 06:30:43;;;;;;;2.60;0.90;;;14.20;1.00;;;;;;5115882;28;20732;-60
2022/04/15 06:33:11;;;;;;;1.70;0.90;;;14.20;1.00;;;;;;5115169;28;20829;-60
2022/04/15 06:35:39;;;;;;;2.90;0.90;;;14.30;1.00;;;;;;5114187;28;20700;-60
2022/04/15 06:38:07;;;;;;;2.43;1.10;;;14.30;1.00;;;;;;5113956;28;20492;-60
2022/04/15 06:40:38;;;;;;;2.83;1.00;;;14.40;1.00;;;;;;5114527;28;20460;-60
2022/04/15 06:43:05;;;;;;;1.97;1.10;;;14.50;1.00;;;;;;5114581;28;20484;-60
2022/04/15 06:45:32;;;;;;;2.50;0.90;;;14.60;1.00;;;;;;5114258;28;20482;-60
2022/04/15 06:47:59;;;;;;;1.40;1.00;;;14.70;1.00;;;;;;5114610;28;20809;-60
2022/04/15 06:50:27;;;;;;;2.13;1.20;;;14.80;1.00;;;;;;5115877;28;20461;-60
2022/04/15 06:52:54;;;;;;;3.27;1.27;;;14.80;1.00;;;;;;5119821;28;20502;-60
2022/04/15 06:55:21;;;;;;;5.17;1.47;;;14.90;1.00;;;;;;5119754;28;20453;-60
2022/04/15 06:57:48;;;;;;;3.53;1.43;;;15.00;1.00;;;;;;5118681;28;20791;-60
2022/04/15 07:00:15;;;;;;;2.30;1.30;;;15.10;1.00;;;;;;5118946;28;20452;-60
2022/04/15 07:02:42;;;;;;;1.67;1.10;;;15.10;1.00;;;;;;5118306;28;20444;-60
2022/04/15 07:05:10;;;;;;;3.97;1.83;;;15.20;1.00;;;;;;5118423;28;20537;-60
2022/04/15 07:07:38;;;;;;;3.37;1.30;;;15.20;99.90;;;;;;5119286;28;20480;-60
2022/04/15 07:10:07;;;;;;;3.97;2.17;;;15.30;99.90;;;;;;5118545;28;20527;-60
2022/04/15 07:12:34;;;;;;;3.63;2.10;;;15.30;99.90;;;;;;5118927;28;20952;-60
2022/04/15 07:15:01;;;;;;;2.07;1.30;;;15.40;99.90;;;;;;5118220;28;20547;-60
2022/04/15 07:17:30;;;;;;;4.07;1.80;;;15.40;75.50;;;;;;5117760;28;20476;-61
2022/04/15 07:19:57;;;;;;;4.73;2.07;;;15.50;1.00;;;;;;5117681;28;20558;-60
2022/04/15 07:22:24;;;;;;;6.33;2.13;;;15.50;99.90;;;;;;5117393;28;20536;-60
2022/04/15 07:24:52;;;;;;;2.93;1.83;;;15.50;1.00;;;;;;5117517;28;20575;-60
2022/04/15 07:27:19;;;;;;;3.73;1.83;;;15.60;99.90;;;;;;5117650;28;20739;-60
2022/04/15 07:29:47;;;;;;;6.03;2.40;;;15.60;99.90;;;;;;5116713;28;20545;-60
2022/04/15 07:32:21;;;;;;;4.17;2.33;;;15.70;99.90;;;;;;5116927;28;20484;-60
2022/04/15 07:34:48;;;;;;;2.57;1.73;;;15.80;16.80;;;;;;5117495;28;20459;-60
2022/04/15 07:37:14;;;;;;;6.53;3.87;;;15.80;1.00;;;;;;5116922;28;20456;-60
2022/04/15 07:39:41;;;;;;;2.50;1.80;;;15.90;99.90;;;;;;5116192;28;20547;-60
2022/04/15 07:42:11;;;;;;;5.30;2.70;;;15.90;1.00;;;;;;5117487;28;20535;-60
2022/04/15 07:44:38;;;;;;;5.63;3.17;;;16.00;1.00;;;;;;5118280;28;20587;-60
2022/04/15 07:47:06;;;;;;;9.10;3.87;;;16.00;1.00;;;;;;5118606;28;20544;-60
2022/04/15 07:49:34;;;;;;;4.00;2.43;;;16.10;1.00;;;;;;5118444;28;20444;-60
2022/04/15 07:52:01;;;;;;;5.17;2.87;;;16.00;1.00;;;;;;5116889;28;20748;-60
2022/04/15 07:54:27;;;;;;;5.63;3.73;;;16.10;99.90;;;;;;5117172;28;20444;-60
2022/04/15 07:56:54;;;;;;;4.77;2.97;;;16.20;99.90;;;;;;5118064;28;21053;-60
2022/04/15 07:59:23;;;;;;;6.63;4.40;;;16.30;99.90;;;;;;5117211;28;20536;-60
2022/04/15 08:01:49;;;;;;;5.43;3.60;;;16.50;23.30;;;;;;5117348;28;20461;-60
2022/04/15 08:04:16;;;;;;;5.57;3.70;;;16.50;19.70;;;;;;5115103;28;20480;-62
2022/04/15 08:06:52;;;;;;;6.70;3.90;;;16.50;20.60;;;;;;5115385;28;20455;-61
2022/04/15 08:09:19;;;;;;;3.70;2.43;;;16.50;43.50;;;;;;5116961;28;20453;-60
2022/04/15 08:11:46;;;;;;;6.70;3.10;;;16.60;44.00;;;;;;5115668;28;20819;-61
2022/04/15 08:14:13;;;;;;;5.23;4.17;;;16.70;1.00;;;;;;5114530;28;20505;-61
2022/04/15 08:16:42;;;;;;;3.50;2.47;;;16.70;1.00;;;;;;5115764;28;20978;-60
2022/04/15 08:19:09;;;;;;;3.57;3.27;;;16.80;1.00;;;;;;5114104;28;20551;-61
2022/04/15 08:21:36;;;;;;;3.93;3.07;;;17.00;1.00;;;;;;5114099;28;20448;-61
2022/04/15 08:24:03;;;;;;;7.00;4.87;;;17.00;1.00;;;;;;5114147;28;20575;-61
2022/04/15 08:26:30;;;;;;;5.87;4.33;;;17.10;1.00;;;;;;5114207;28;20521;-61
2022/04/15 08:28:57;;;;;;;5.67;3.73;;;17.20;99.90;;;;;;5112814;28;20762;-61
2022/04/15 08:31:24;;;;;;;5.17;4.07;;;17.20;99.90;;;;;;5114060;28;20932;-61
2022/04/15 08:33:52;;;;;;;5.93;4.00;;;17.20;99.90;;;;;;5114844;28;20510;-61
2022/04/15 08:36:19;;;;;;;5.07;3.70;;;17.30;99.90;;;;;;5116406;28;20535;-62
2022/04/15 08:38:46;;;;;;;8.00;5.53;;;17.50;99.90;;;;;;5117577;28;20445;-61
2022/04/15 08:41:15;;;;;;;5.57;5.07;;;17.60;99.90;;;;;;5116710;28;20856;-61
2022/04/15 08:43:42;;;;;;;6.37;4.53;;;17.60;99.90;;;;;;5117658;28;20764;-61
2022/04/15 08:46:12;;;;;;;3.90;3.50;;;17.60;99.90;;;;;;5117847;28;20468;-62
2022/04/15 08:48:40;;;;;;;5.80;4.13;;;17.60;99.90;;;;;;5114644;28;20488;-61
2022/04/15 08:51:09;;;;;;;5.77;3.73;;;17.70;99.90;;;;;;5114396;28;20883;-60
2022/04/15 08:53:37;;;;;;;6.17;4.93;;;17.90;99.90;;;;;;5114266;28;20465;-62
2022/04/15 08:56:04;;;;;;;7.60;5.10;;;18.20;99.90;;;;;;5114257;28;20505;-61
2022/04/15 08:58:31;;;;;;;6.97;4.23;;;18.40;51.40;;;;;;5113979;28;20800;-60
2022/04/15 09:00:58;;;;;;;4.77;3.53;;;18.50;1.00;;;;;;5113874;28;20484;-61
2022/04/15 09:03:25;;;;;;;10.93;5.83;;;18.60;1.00;;;;;;5114879;28;20921;-61
2022/04/15 09:05:52;;;;;;;8.83;5.27;;;18.40;1.00;;;;;;5115348;28;20448;-61
2022/04/15 09:08:20;;;;;;;6.67;4.90;;;18.50;1.00;;;;;;5114544;28;20488;-61
2022/04/15 09:10:56;;;;;;;5.40;4.50;;;18.50;1.00;;;;;;5114100;28;20488;-62
2022/04/15 09:13:28;;;;;;;8.23;6.27;;;18.60;1.00;;;;;;5113362;28;20471;-61
2022/04/15 09:15:55;;;;;;;6.07;4.90;;;18.70;1.00;;;;;;5113850;28;20480;-61
2022/04/15 09:18:30;;;;;;;8.23;5.70;;;18.70;1.00;;;;;;5115890;28;20510;-61
2022/04/15 09:21:16;;;;;;;5.77;4.53;;;18.80;1.00;;;;;;5116174;28;20764;-61
2022/04/15 09:23:46;;;;;;;6.77;5.13;;;18.80;1.00;;;;;;5115334;28;20594;-61
2022/04/15 09:26:14;;;;;;;5.77;4.27;;;18.80;1.00;;;;;;5112791;28;20479;-61
2022/04/15 09:28:41;;;;;;;8.60;5.80;;;18.80;1.00;;;;;;5111991;28;20453;-61
2022/04/15 09:31:13;;;;;;;5.37;4.23;;;18.80;1.00;;;;;;5112865;28;20445;-62
2022/04/15 09:33:50;;;;;;;6.07;4.80;;;18.90;1.00;;;;;;5113843;28;20556;-61
2022/04/15 09:36:26;;;;;;;6.50;5.87;;;19.10;1.00;;;;;;5113300;28;20445;-61
2022/04/15 09:39:04;;;;;;;6.60;5.73;;;19.10;1.00;;;;;;5112872;28;20456;-61
2022/04/15 09:41:31;;;;;;;7.13;6.43;;;18.90;1.00;;;;;;5113450;28;20445;-61
2022/04/15 09:44:00;;;;;;;5.57;5.07;;;19.00;1.00;;;;;;5113708;28;20880;-61
2022/04/15 09:46:29;;;;;;;4.87;4.00;;;18.80;1.00;;;;;;5113665;28;20477;-62
2022/04/15 09:49:02;;;;;;;4.63;4.23;;;18.80;1.00;;;;;;5114635;28;20456;-61
2022/04/15 09:51:33;;;;;;;7.03;4.20;;;19.00;1.00;;;;;;5115138;28;20445;-61
2022/04/15 09:54:03;;;;;;;4.53;3.87;;;19.20;1.00;;;;;;5113550;28;20497;-61
2022/04/15 09:56:34;;;;;;;4.80;4.03;;;19.10;1.00;;;;;;5114949;28;20444;-61
2022/04/15 09:59:06;;;;;;;6.87;5.50;;;19.30;1.00;;;;;;5113661;28;20478;-62
2022/04/15 10:01:35;;;;;;;4.53;3.63;;;19.40;1.00;;;;;;5115602;28;20448;-61
2022/04/15 10:04:03;;;;;;;6.87;4.20;;;19.50;1.00;;;;;;5115359;28;20551;-61
2022/04/15 10:06:31;;;;;;;5.87;4.30;;;19.70;1.00;;;;;;5115709;28;20455;-61
2022/04/15 10:09:02;;;;;;;6.90;3.97;;;19.80;1.00;;;;;;5115123;28;20552;-61
2022/04/15 10:11:35;;;;;;;4.60;3.97;;;20.00;1.00;;;;;;5114764;28;20449;-59
2022/04/15 10:14:02;;;;;;;4.63;3.70;;;20.30;1.00;;;;;;5114178;28;20467;-59
2022/04/15 10:16:30;;;;;;;5.20;4.70;;;20.50;1.00;;;;;;5114509;28;20791;-60
2022/04/15 10:19:00;;;;;;;5.30;4.43;;;20.70;1.00;;;;;;5116202;28;20453;-60
2022/04/15 10:21:27;;;;;;;3.13;2.77;;;21.00;1.00;;;;;;5115935;28;20943;-59
2022/04/15 10:23:54;;;;;;;4.20;3.80;;;21.00;1.00;;;;;;5111847;28;20449;-60
2022/04/15 10:26:23;;;;;;;3.47;3.17;;;21.00;1.00;;;;;;5115626;28;20480;-60
2022/04/15 10:28:54;;;;;;;3.13;2.80;;;21.40;1.00;;;;;;5117074;28;20464;-61
2022/04/15 10:31:22;;;;;;;5.00;2.17;;;21.20;1.00;;;;;;5118012;28;20448;-61
2022/04/15 10:33:50;;;;;;;6.90;4.90;;;21.20;1.00;;;;;;5118407;28;20533;-60
2022/04/15 10:36:18;;;;;;;4.73;3.47;;;21.00;1.00;;;;;;5118979;28;20451;-61
2022/04/15 10:39:24;;;;;;;5.47;4.47;;;21.10;1.00;;;;;;5118190;28;20571;-62
2022/04/15 10:42:01;;;;;;;4.37;3.03;;;21.20;1.00;;;;;;5110779;28;20843;-62
2022/04/15 10:44:33;;;;;;;3.07;2.77;;;20.40;1.00;;;;;;5116137;28;20476;-60
2022/04/15 10:47:04;;;;;;;4.07;3.23;;;20.70;1.00;;;;;;5117540;28;20876;-63
2022/04/15 10:49:35;;;;;;;4.80;2.80;;;21.10;1.00;;;;;;5116564;28;20527;-59
2022/04/15 10:52:04;;;;;;;3.23;2.90;;;21.70;1.00;;;;;;5117455;28;20440;-61
2022/04/15 10:54:33;;;;;;;5.13;2.10;;;22.00;1.00;;;;;;5116714;28;20525;-59
2022/04/15 10:57:01;;;;;;;3.10;1.50;;;22.00;1.00;;;;;;5116638;28;20490;-62
2022/04/15 11:02:32;;;;;;;3.07;2.10;;;21.20;1.00;;;;;;5116744;28;20419;-60
2022/04/15 11:04:59;;;;;;;2.83;1.90;;;21.00;1.00;;;;;;5115219;28;20588;-60
2022/04/15 11:07:27;;;;;;;3.60;2.67;;;20.90;1.00;;;;;;5117106;28;20535;-60
2022/04/15 11:09:55;;;;;;;2.40;1.40;;;20.90;1.00;;;;;;5116981;28;20558;-60
2022/04/15 11:12:42;;;;;;;1.53;1.17;;;20.90;1.00;;;;;;5115595;28;20956;-60
2022/04/15 11:15:11;;;;;;;3.27;2.13;;;20.90;1.00;;;;;;5114204;28;20456;-60
2022/04/15 11:17:39;;;;;;;2.50;1.70;;;20.70;1.00;;;;;;5116399;28;20889;-59
2022/04/15 11:20:08;;;;;;;3.43;1.90;;;21.00;1.00;;;;;;5118481;28;20567;-60
2022/04/15 11:22:39;;;;;;;1.60;1.30;;;21.40;1.00;;;;;;5117331;28;20547;-60
2022/04/15 11:25:09;;;;;;;3.10;1.53;;;21.70;1.00;;;;;;5115975;28;20484;-60
2022/04/15 11:27:38;;;;;;;2.73;1.50;;;21.90;1.00;;;;;;5116604;28;20445;-60
2022/04/15 11:30:12;;;;;;;1.93;1.67;;;22.10;1.00;;;;;;5116900;28;20486;-62
2022/04/15 11:32:47;;;;;;;1.97;1.43;;;22.20;1.00;;;;;;5117848;28;20832;-59
2022/04/15 11:35:27;;;;;;;2.03;1.93;;;22.40;1.00;;;;;;5117572;28;20542;-60
2022/04/15 11:37:57;;;;;;;3.87;2.80;;;22.60;1.00;;;;;;5114901;28;20451;-60
2022/04/15 11:40:27;;;;;;;4.80;3.17;;;22.30;1.00;;;;;;5116823;28;20469;-60
2022/04/15 11:42:58;;;;;;;3.07;2.07;;;22.00;1.00;;;;;;5117138;28;20452;-60
2022/04/15 11:45:38;;;;;;;4.53;2.00;;;21.60;1.00;;;;;;5116581;28;20495;-61
2022/04/15 11:48:16;;;;;;;3.73;2.87;;;21.70;1.00;;;;;;5116154;28;20804;-61
2022/04/15 11:50:43;;;;;;;2.47;1.90;;;21.30;1.00;;;;;;5115754;28;20452;-61
2022/04/15 11:53:10;;;;;;;2.40;1.63;;;21.20;1.00;;;;;;5115593;28;20445;-62
2022/04/15 11:55:51;;;;;;;2.50;1.60;;;21.40;1.00;;;;;;5114990;28;20517;-61
2022/04/15 11:58:20;;;;;;;2.10;1.30;;;21.40;1.00;;;;;;5108581;28;20475;-61
2022/04/15 12:00:56;;;;;;;4.60;1.60;;;21.70;1.00;;;;;;5096066;28;20908;-61
2022/04/15 12:03:23;;;;;;;2.53;1.00;;;21.90;1.00;;;;;;5097462;28;20476;-61
2022/04/15 12:05:51;;;;;;;3.17;1.50;;;22.10;1.00;;;;;;5097427;28;20517;-61
2022/04/15 12:08:19;;;;;;;1.30;1.10;;;22.20;1.00;;;;;;5095865;28;20956;-61
2022/04/15 12:10:47;;;;;;;3.63;0.90;;;22.30;1.00;;;;;;5095650;28;20453;-62
2022/04/15 12:13:15;;;;;;;2.37;1.47;;;22.50;1.00;;;;;;5095560;28;20460;-62
2022/04/15 12:15:43;;;;;;;2.60;1.47;;;22.70;1.00;;;;;;5102306;28;20472;-62
2022/04/15 12:18:12;;;;;;;1.93;1.50;;;23.00;1.00;;;;;;5115735;28;20828;-62
2022/04/15 12:20:41;;;;;;;2.63;2.13;;;23.10;1.00;;;;;;5116541;28;20480;-62
2022/04/15 12:23:13;;;;;;;2.07;1.60;;;23.00;1.00;;;;;;5114459;28;20955;-61
2022/04/15 12:31:28;;;;;;;3.67;2.30;;;22.20;1.00;;;;;;5117368;28;20428;-62
2022/04/15 12:33:56;;;;;;;2.50;1.43;;;21.80;1.00;;;;;;5117040;28;20466;-61
2022/04/15 12:36:23;;;;;;;3.20;1.70;;;21.80;1.00;;;;;;5116343;28;20444;-62
2022/04/15 12:39:01;;;;;;;2.70;1.43;;;21.80;1.00;;;;;;5114691;28;20447;-61
2022/04/15 12:41:48;;;;;;;2.33;1.90;;;21.70;1.00;;;;;;5115101;28;20488;-61
2022/04/15 12:44:20;;;;;;;2.73;1.10;;;21.10;1.00;;;;;;5116450;28;20527;-61
2022/04/15 12:46:49;;;;;;;2.00;1.07;;;21.00;1.00;;;;;;5115873;28;20489;-61
2022/04/15 12:49:29;;;;;;;1.73;1.23;;;21.00;1.00;;;;;;5114762;28;20819;-62
2022/04/15 12:52:12;;;;;;;1.73;1.30;;;21.20;1.00;;;;;;5113515;28;20432;-61
2022/04/15 12:54:57;;;;;;;1.40;1.00;;;21.40;1.00;;;;;;5115105;28;20455;-62
2022/04/15 12:57:28;;;;;;;1.80;1.13;;;21.30;1.00;;;;;;5114323;28;20516;-61
2022/04/15 12:59:55;;;;;;;3.23;1.10;;;21.50;1.00;;;;;;5112642;28;20453;-61
2022/04/15 13:02:23;;;;;;;1.90;0.90;;;21.80;1.00;;;;;;5111540;28;20555;-61
2022/04/15 13:04:52;;;;;;;1.50;1.40;;;21.90;1.00;;;;;;5112027;28;20556;-61
2022/04/15 13:07:19;;;;;;;2.50;1.37;;;21.90;1.00;;;;;;5113485;28;20449;-61
2022/04/15 13:09:47;;;;;;;1.50;1.00;;;22.10;1.00;;;;;;5113925;28;20757;-62
2022/04/15 13:12:14;;;;;;;1.67;0.90;;;21.90;1.00;;;;;;5114148;28;20951;-61